sensor_id;sensor_type;location;lat;lon;timestamp;P1;durP1;ratioP1;P2;durP2;ratioP2
4057;SDS011;2044;48.692;9.020;2023-04-03T00:01:59;3.43;;;3.13;;
4057;SDS011;2044;48.692;9.020;2023-04-03T00:04:26;4.30;;;3.87;;
4057;SDS011;2044;48.692;9.020;2023-04-03T00:06:54;3.23;;;2.93;;
4057;SDS011;2044;48.692;9.020;2023-04-03T00:09:20;4.63;;;3.17;;
4057;SDS011;2044;48.692;9.020;2023-04-03T00:11:47;5.97;;;4.60;;
4057;SDS011;2044;48.692;9.020;2023-04-03T00:14:14;4.57;;;3.90;;
4057;SDS011;2044;48.692;9.020;2023-04-03T00:16:40;4.40;;;3.47;;
4057;SDS011;2044;48.692;9.020;2023-04-03T00:19:07;4.63;;;3.83;;
4057;SDS011;2044;48.692;9.020;2023-04-03T00:21:36;7.47;;;4.57;;
4057;SDS011;2044;48.692;9.020;2023-04-03T00:24:05;4.77;;;3.70;;
4057;SDS011;2044;48.692;9.020;2023-04-03T00:26:32;4.17;;;3.70;;
4057;SDS011;2044;48.692;9.020;2023-04-03T00:28:58;3.13;;;2.83;;
4057;SDS011;2044;48.692;9.020;2023-04-03T00:31:25;3.50;;;2.57;;
4057;SDS011;2044;48.692;9.020;2023-04-03T00:33:52;4.73;;;4.23;;
4057;SDS011;2044;48.692;9.020;2023-04-03T00:36:19;5.57;;;2.63;;
4057;SDS011;2044;48.692;9.020;2023-04-03T00:38:45;5.83;;;3.47;;
4057;SDS011;2044;48.692;9.020;2023-04-03T00:41:13;6.00;;;3.77;;
4057;SDS011;2044;48.692;9.020;2023-04-03T00:43:40;6.97;;;4.53;;
4057;SDS011;2044;48.692;9.020;2023-04-03T00:46:07;8.47;;;3.33;;
4057;SDS011;2044;48.692;9.020;2023-04-03T00:48:35;2.97;;;2.20;;
4057;SDS011;2044;48.692;9.020;2023-04-03T00:51:06;4.47;;;3.23;;
4057;SDS011;2044;48.692;9.020;2023-04-03T00:53:35;4.40;;;3.33;;
4057;SDS011;2044;48.692;9.020;2023-04-03T00:56:06;5.67;;;4.10;;
4057;SDS011;2044;48.692;9.020;2023-04-03T00:58:39;4.50;;;3.50;;
4057;SDS011;2044;48.692;9.020;2023-04-03T01:01:11;4.83;;;2.77;;
4057;SDS011;2044;48.692;9.020;2023-04-03T01:03:41;3.00;;;2.50;;
4057;SDS011;2044;48.692;9.020;2023-04-03T01:06:08;5.40;;;3.70;;
4057;SDS011;2044;48.692;9.020;2023-04-03T01:08:35;4.40;;;3.30;;
4057;SDS011;2044;48.692;9.020;2023-04-03T01:11:02;7.47;;;3.60;;
4057;SDS011;2044;48.692;9.020;2023-04-03T01:13:30;4.10;;;3.27;;
4057;SDS011;2044;48.692;9.020;2023-04-03T01:16:03;5.40;;;3.57;;
4057;SDS011;2044;48.692;9.020;2023-04-03T01:18:31;6.10;;;3.33;;
4057;SDS011;2044;48.692;9.020;2023-04-03T01:24:15;5.43;;;3.80;;
4057;SDS011;2044;48.692;9.020;2023-04-03T01:26:51;6.10;;;3.80;;
4057;SDS011;2044;48.692;9.020;2023-04-03T01:29:18;4.70;;;4.00;;
4057;SDS011;2044;48.692;9.020;2023-04-03T01:31:50;5.43;;;4.87;;
4057;SDS011;2044;48.692;9.020;2023-04-03T01:34:18;5.53;;;4.30;;
4057;SDS011;2044;48.692;9.020;2023-04-03T01:36:45;6.73;;;3.97;;
4057;SDS011;2044;48.692;9.020;2023-04-03T01:39:12;5.93;;;4.30;;
4057;SDS011;2044;48.692;9.020;2023-04-03T01:41:39;6.17;;;3.57;;
4057;SDS011;2044;48.692;9.020;2023-04-03T01:44:06;5.17;;;3.60;;
4057;SDS011;2044;48.692;9.020;2023-04-03T01:46:32;5.13;;;3.10;;
4057;SDS011;2044;48.692;9.020;2023-04-03T01:49:01;3.50;;;3.20;;
4057;SDS011;2044;48.692;9.020;2023-04-03T01:51:27;4.00;;;3.60;;
4057;SDS011;2044;48.692;9.020;2023-04-03T01:53:54;3.83;;;3.40;;
4057;SDS011;2044;48.692;9.020;2023-04-03T01:56:21;3.60;;;3.10;;
4057;SDS011;2044;48.692;9.020;2023-04-03T01:58:48;4.90;;;3.60;;
4057;SDS011;2044;48.692;9.020;2023-04-03T02:01:15;4.27;;;3.70;;
4057;SDS011;2044;48.692;9.020;2023-04-03T02:03:42;6.53;;;3.30;;
4057;SDS011;2044;48.692;9.020;2023-04-03T02:06:10;2.70;;;2.43;;
4057;SDS011;2044;48.692;9.020;2023-04-03T02:08:36;4.00;;;3.60;;
4057;SDS011;2044;48.692;9.020;2023-04-03T02:11:03;4.60;;;3.60;;
4057;SDS011;2044;48.692;9.020;2023-04-03T02:13:30;3.53;;;2.90;;
4057;SDS011;2044;48.692;9.020;2023-04-03T02:15:57;6.83;;;2.67;;
4057;SDS011;2044;48.692;9.020;2023-04-03T02:18:24;3.90;;;3.10;;
4057;SDS011;2044;48.692;9.020;2023-04-03T02:20:50;2.77;;;2.57;;
4057;SDS011;2044;48.692;9.020;2023-04-03T02:23:18;5.43;;;3.17;;
4057;SDS011;2044;48.692;9.020;2023-04-03T02:25:45;5.57;;;3.90;;
4057;SDS011;2044;48.692;9.020;2023-04-03T02:28:14;5.90;;;3.13;;
4057;SDS011;2044;48.692;9.020;2023-04-03T02:30:40;4.50;;;3.50;;
4057;SDS011;2044;48.692;9.020;2023-04-03T02:33:07;3.70;;;3.00;;
4057;SDS011;2044;48.692;9.020;2023-04-03T02:35:34;4.47;;;3.40;;
4057;SDS011;2044;48.692;9.020;2023-04-03T02:38:01;5.83;;;3.40;;
4057;SDS011;2044;48.692;9.020;2023-04-03T02:40:30;7.40;;;4.03;;
4057;SDS011;2044;48.692;9.020;2023-04-03T02:42:56;3.80;;;2.93;;
4057;SDS011;2044;48.692;9.020;2023-04-03T02:45:23;5.30;;;3.63;;
4057;SDS011;2044;48.692;9.020;2023-04-03T02:47:50;7.43;;;4.10;;
4057;SDS011;2044;48.692;9.020;2023-04-03T02:50:16;2.90;;;2.60;;
4057;SDS011;2044;48.692;9.020;2023-04-03T02:52:43;6.07;;;3.43;;
4057;SDS011;2044;48.692;9.020;2023-04-03T02:55:12;7.43;;;3.90;;
4057;SDS011;2044;48.692;9.020;2023-04-03T02:57:41;5.00;;;3.37;;
4057;SDS011;2044;48.692;9.020;2023-04-03T03:00:08;4.37;;;3.40;;
4057;SDS011;2044;48.692;9.020;2023-04-03T03:02:36;5.47;;;3.63;;
4057;SDS011;2044;48.692;9.020;2023-04-03T03:05:02;6.27;;;4.43;;
4057;SDS011;2044;48.692;9.020;2023-04-03T03:07:30;3.97;;;3.40;;
4057;SDS011;2044;48.692;9.020;2023-04-03T03:09:57;3.07;;;2.67;;
4057;SDS011;2044;48.692;9.020;2023-04-03T03:12:24;3.53;;;3.00;;
4057;SDS011;2044;48.692;9.020;2023-04-03T03:14:52;4.83;;;3.30;;
4057;SDS011;2044;48.692;9.020;2023-04-03T03:17:18;4.80;;;3.20;;
4057;SDS011;2044;48.692;9.020;2023-04-03T03:19:45;4.57;;;3.50;;
4057;SDS011;2044;48.692;9.020;2023-04-03T03:22:11;5.50;;;3.57;;
4057;SDS011;2044;48.692;9.020;2023-04-03T03:24:38;7.60;;;4.03;;
4057;SDS011;2044;48.692;9.020;2023-04-03T03:27:05;3.73;;;3.07;;
4057;SDS011;2044;48.692;9.020;2023-04-03T03:29:31;4.80;;;3.60;;
4057;SDS011;2044;48.692;9.020;2023-04-03T03:31:59;5.43;;;3.73;;
4057;SDS011;2044;48.692;9.020;2023-04-03T03:34:26;6.13;;;3.60;;
4057;SDS011;2044;48.692;9.020;2023-04-03T03:36:53;6.23;;;3.87;;
4057;SDS011;2044;48.692;9.020;2023-04-03T03:39:20;5.40;;;3.70;;
4057;SDS011;2044;48.692;9.020;2023-04-03T03:41:46;3.93;;;3.53;;
4057;SDS011;2044;48.692;9.020;2023-04-03T03:44:14;4.70;;;3.30;;
4057;SDS011;2044;48.692;9.020;2023-04-03T03:46:41;5.17;;;4.03;;
4057;SDS011;2044;48.692;9.020;2023-04-03T03:49:09;5.23;;;3.70;;
4057;SDS011;2044;48.692;9.020;2023-04-03T03:51:36;5.10;;;3.10;;
4057;SDS011;2044;48.692;9.020;2023-04-03T03:54:03;5.77;;;3.27;;
4057;SDS011;2044;48.692;9.020;2023-04-03T03:56:30;3.93;;;3.50;;
4057;SDS011;2044;48.692;9.020;2023-04-03T03:58:57;4.30;;;3.37;;
4057;SDS011;2044;48.692;9.020;2023-04-03T04:01:23;5.20;;;3.60;;
4057;SDS011;2044;48.692;9.020;2023-04-03T04:03:50;4.10;;;3.23;;
4057;SDS011;2044;48.692;9.020;2023-04-03T04:06:20;5.10;;;4.03;;
4057;SDS011;2044;48.692;9.020;2023-04-03T04:08:47;6.57;;;3.33;;
4057;SDS011;2044;48.692;9.020;2023-04-03T04:11:13;5.80;;;4.53;;
4057;SDS011;2044;48.692;9.020;2023-04-03T04:13:40;6.97;;;2.97;;
4057;SDS011;2044;48.692;9.020;2023-04-03T04:16:07;6.43;;;4.00;;
4057;SDS011;2044;48.692;9.020;2023-04-03T04:18:34;6.07;;;2.90;;
4057;SDS011;2044;48.692;9.020;2023-04-03T04:21:01;8.20;;;4.83;;
4057;SDS011;2044;48.692;9.020;2023-04-03T04:23:29;6.03;;;3.20;;
4057;SDS011;2044;48.692;9.020;2023-04-03T04:25:56;4.47;;;3.70;;
4057;SDS011;2044;48.692;9.020;2023-04-03T04:28:23;4.23;;;3.27;;
4057;SDS011;2044;48.692;9.020;2023-04-03T04:30:50;4.30;;;3.50;;
4057;SDS011;2044;48.692;9.020;2023-04-03T04:33:16;7.20;;;4.07;;
4057;SDS011;2044;48.692;9.020;2023-04-03T04:35:43;4.17;;;3.77;;
4057;SDS011;2044;48.692;9.020;2023-04-03T04:38:10;4.43;;;4.03;;
4057;SDS011;2044;48.692;9.020;2023-04-03T04:40:38;6.83;;;4.10;;
4057;SDS011;2044;48.692;9.020;2023-04-03T04:43:05;4.80;;;4.03;;
4057;SDS011;2044;48.692;9.020;2023-04-03T04:45:32;5.37;;;3.80;;
4057;SDS011;2044;48.692;9.020;2023-04-03T04:47:59;3.43;;;3.10;;
4057;SDS011;2044;48.692;9.020;2023-04-03T04:50:26;3.73;;;3.20;;
4057;SDS011;2044;48.692;9.020;2023-04-03T04:52:52;3.60;;;3.30;;
4057;SDS011;2044;48.692;9.020;2023-04-03T04:55:19;5.60;;;4.60;;
4057;SDS011;2044;48.692;9.020;2023-04-03T04:57:47;3.53;;;3.17;;
4057;SDS011;2044;48.692;9.020;2023-04-03T05:00:14;3.50;;;3.07;;
4057;SDS011;2044;48.692;9.020;2023-04-03T05:02:41;7.97;;;3.50;;
4057;SDS011;2044;48.692;9.020;2023-04-03T05:05:08;5.40;;;4.90;;
4057;SDS011;2044;48.692;9.020;2023-04-03T05:07:35;5.37;;;4.50;;
4057;SDS011;2044;48.692;9.020;2023-04-03T05:10:02;4.53;;;4.03;;
4057;SDS011;2044;48.692;9.020;2023-04-03T05:12:29;4.73;;;4.27;;
4057;SDS011;2044;48.692;9.020;2023-04-03T05:14:57;3.10;;;2.90;;
4057;SDS011;2044;48.692;9.020;2023-04-03T05:17:24;5.20;;;4.17;;
4057;SDS011;2044;48.692;9.020;2023-04-03T05:19:50;4.53;;;3.63;;
4057;SDS011;2044;48.692;9.020;2023-04-03T05:22:17;5.80;;;4.40;;
4057;SDS011;2044;48.692;9.020;2023-04-03T05:24:44;5.03;;;4.00;;
4057;SDS011;2044;48.692;9.020;2023-04-03T05:27:10;4.10;;;3.87;;
4057;SDS011;2044;48.692;9.020;2023-04-03T05:29:37;4.60;;;4.30;;
4057;SDS011;2044;48.692;9.020;2023-04-03T05:32:05;4.10;;;3.80;;
4057;SDS011;2044;48.692;9.020;2023-04-03T05:34:32;4.63;;;4.33;;
4057;SDS011;2044;48.692;9.020;2023-04-03T05:36:58;5.93;;;5.53;;
4057;SDS011;2044;48.692;9.020;2023-04-03T05:39:25;5.17;;;4.80;;
4057;SDS011;2044;48.692;9.020;2023-04-03T05:41:52;5.50;;;5.10;;
4057;SDS011;2044;48.692;9.020;2023-04-03T05:44:18;4.57;;;4.27;;
4057;SDS011;2044;48.692;9.020;2023-04-03T05:46:45;6.03;;;5.57;;
4057;SDS011;2044;48.692;9.020;2023-04-03T05:49:13;5.20;;;4.90;;
4057;SDS011;2044;48.692;9.020;2023-04-03T05:51:40;5.60;;;5.30;;
4057;SDS011;2044;48.692;9.020;2023-04-03T05:54:09;5.37;;;5.07;;
4057;SDS011;2044;48.692;9.020;2023-04-03T05:56:39;6.10;;;5.80;;
4057;SDS011;2044;48.692;9.020;2023-04-03T05:59:06;5.27;;;4.90;;
4057;SDS011;2044;48.692;9.020;2023-04-03T06:01:32;5.13;;;4.83;;
4057;SDS011;2044;48.692;9.020;2023-04-03T06:04:00;5.67;;;5.37;;
4057;SDS011;2044;48.692;9.020;2023-04-03T06:09:21;6.03;;;5.63;;
4057;SDS011;2044;48.692;9.020;2023-04-03T06:11:50;5.50;;;5.23;;
4057;SDS011;2044;48.692;9.020;2023-04-03T06:14:17;6.50;;;6.10;;
4057;SDS011;2044;48.692;9.020;2023-04-03T06:16:43;6.70;;;6.20;;
4057;SDS011;2044;48.692;9.020;2023-04-03T06:19:11;6.77;;;6.27;;
4057;SDS011;2044;48.692;9.020;2023-04-03T06:21:38;7.43;;;6.73;;
4057;SDS011;2044;48.692;9.020;2023-04-03T06:24:05;6.60;;;5.80;;
4057;SDS011;2044;48.692;9.020;2023-04-03T06:26:34;7.30;;;6.70;;
4057;SDS011;2044;48.692;9.020;2023-04-03T06:29:00;6.30;;;5.90;;
4057;SDS011;2044;48.692;9.020;2023-04-03T06:31:27;5.70;;;5.30;;
4057;SDS011;2044;48.692;9.020;2023-04-03T06:33:54;5.90;;;5.40;;
4057;SDS011;2044;48.692;9.020;2023-04-03T06:36:21;5.17;;;4.83;;
4057;SDS011;2044;48.692;9.020;2023-04-03T06:38:48;5.40;;;5.00;;
4057;SDS011;2044;48.692;9.020;2023-04-03T06:41:15;5.97;;;5.13;;
4057;SDS011;2044;48.692;9.020;2023-04-03T06:43:43;6.10;;;5.63;;
4057;SDS011;2044;48.692;9.020;2023-04-03T06:46:14;6.43;;;6.00;;
4057;SDS011;2044;48.692;9.020;2023-04-03T06:48:41;5.40;;;5.10;;
4057;SDS011;2044;48.692;9.020;2023-04-03T06:51:12;6.07;;;5.63;;
4057;SDS011;2044;48.692;9.020;2023-04-03T06:53:45;7.50;;;7.00;;
4057;SDS011;2044;48.692;9.020;2023-04-03T06:56:12;10.40;;;6.13;;
4057;SDS011;2044;48.692;9.020;2023-04-03T06:58:39;6.93;;;6.53;;
4057;SDS011;2044;48.692;9.020;2023-04-03T07:01:08;7.33;;;6.93;;
4057;SDS011;2044;48.692;9.020;2023-04-03T07:03:35;6.60;;;6.20;;
4057;SDS011;2044;48.692;9.020;2023-04-03T07:06:02;5.70;;;5.37;;
4057;SDS011;2044;48.692;9.020;2023-04-03T07:08:29;7.47;;;6.87;;
4057;SDS011;2044;48.692;9.020;2023-04-03T07:10:56;7.17;;;6.67;;
4057;SDS011;2044;48.692;9.020;2023-04-03T07:13:23;6.70;;;6.40;;
4057;SDS011;2044;48.692;9.020;2023-04-03T07:15:50;7.63;;;7.10;;
4057;SDS011;2044;48.692;9.020;2023-04-03T07:18:19;7.37;;;6.93;;
4057;SDS011;2044;48.692;9.020;2023-04-03T07:20:46;6.83;;;6.23;;
4057;SDS011;2044;48.692;9.020;2023-04-03T07:23:13;6.47;;;6.03;;
4057;SDS011;2044;48.692;9.020;2023-04-03T07:25:41;6.33;;;5.83;;
4057;SDS011;2044;48.692;9.020;2023-04-03T07:28:09;7.27;;;6.77;;
4057;SDS011;2044;48.692;9.020;2023-04-03T07:30:41;7.33;;;6.90;;
4057;SDS011;2044;48.692;9.020;2023-04-03T07:33:08;6.03;;;5.80;;
4057;SDS011;2044;48.692;9.020;2023-04-03T07:35:36;7.47;;;6.90;;
4057;SDS011;2044;48.692;9.020;2023-04-03T07:38:03;6.83;;;6.33;;
4057;SDS011;2044;48.692;9.020;2023-04-03T07:40:30;6.83;;;6.43;;
4057;SDS011;2044;48.692;9.020;2023-04-03T07:42:57;8.10;;;7.70;;
4057;SDS011;2044;48.692;9.020;2023-04-03T07:45:24;6.43;;;5.83;;
4057;SDS011;2044;48.692;9.020;2023-04-03T07:47:52;5.87;;;5.57;;
4057;SDS011;2044;48.692;9.020;2023-04-03T07:50:19;7.57;;;7.10;;
4057;SDS011;2044;48.692;9.020;2023-04-03T07:52:47;6.40;;;5.83;;
4057;SDS011;2044;48.692;9.020;2023-04-03T07:55:15;6.47;;;6.07;;
4057;SDS011;2044;48.692;9.020;2023-04-03T07:57:42;6.30;;;5.90;;
4057;SDS011;2044;48.692;9.020;2023-04-03T08:00:11;6.90;;;6.40;;
4057;SDS011;2044;48.692;9.020;2023-04-03T08:02:39;6.27;;;5.90;;
4057;SDS011;2044;48.692;9.020;2023-04-03T08:05:06;6.80;;;6.43;;
4057;SDS011;2044;48.692;9.020;2023-04-03T08:07:34;7.03;;;6.63;;
4057;SDS011;2044;48.692;9.020;2023-04-03T08:10:04;7.20;;;6.80;;
4057;SDS011;2044;48.692;9.020;2023-04-03T08:12:31;7.70;;;7.23;;
4057;SDS011;2044;48.692;9.020;2023-04-03T08:14:59;7.33;;;6.77;;
4057;SDS011;2044;48.692;9.020;2023-04-03T08:17:26;8.50;;;8.00;;
4057;SDS011;2044;48.692;9.020;2023-04-03T08:19:53;8.03;;;7.47;;
4057;SDS011;2044;48.692;9.020;2023-04-03T08:22:19;8.03;;;7.53;;
4057;SDS011;2044;48.692;9.020;2023-04-03T08:24:46;6.83;;;6.50;;
4057;SDS011;2044;48.692;9.020;2023-04-03T08:27:14;8.77;;;8.20;;
4057;SDS011;2044;48.692;9.020;2023-04-03T08:29:41;8.90;;;8.20;;
4057;SDS011;2044;48.692;9.020;2023-04-03T08:32:08;7.30;;;6.90;;
4057;SDS011;2044;48.692;9.020;2023-04-03T08:34:34;7.57;;;7.07;;
4057;SDS011;2044;48.692;9.020;2023-04-03T08:37:04;7.67;;;7.17;;
4057;SDS011;2044;48.692;9.020;2023-04-03T08:39:31;7.70;;;7.20;;
4057;SDS011;2044;48.692;9.020;2023-04-03T08:41:58;8.30;;;7.70;;
4057;SDS011;2044;48.692;9.020;2023-04-03T08:44:31;7.23;;;6.93;;
4057;SDS011;2044;48.692;9.020;2023-04-03T08:47:10;6.67;;;6.37;;
4057;SDS011;2044;48.692;9.020;2023-04-03T08:49:44;8.10;;;7.50;;
4057;SDS011;2044;48.692;9.020;2023-04-03T08:52:17;8.27;;;7.87;;
4057;SDS011;2044;48.692;9.020;2023-04-03T08:54:48;7.63;;;7.13;;
4057;SDS011;2044;48.692;9.020;2023-04-03T08:57:17;8.13;;;7.70;;
4057;SDS011;2044;48.692;9.020;2023-04-03T08:59:49;7.83;;;7.33;;
4057;SDS011;2044;48.692;9.020;2023-04-03T09:02:25;7.67;;;6.93;;
4057;SDS011;2044;48.692;9.020;2023-04-03T09:04:57;8.07;;;7.67;;
4057;SDS011;2044;48.692;9.020;2023-04-03T09:07:27;9.10;;;8.50;;
4057;SDS011;2044;48.692;9.020;2023-04-03T09:10:01;9.20;;;8.60;;
4057;SDS011;2044;48.692;9.020;2023-04-03T09:12:32;9.30;;;8.67;;
4057;SDS011;2044;48.692;9.020;2023-04-03T09:15:05;7.40;;;7.00;;
4057;SDS011;2044;48.692;9.020;2023-04-03T09:17:40;8.80;;;8.00;;
4057;SDS011;2044;48.692;9.020;2023-04-03T09:20:14;11.50;;;7.80;;
4057;SDS011;2044;48.692;9.020;2023-04-03T09:22:51;9.13;;;8.43;;
4057;SDS011;2044;48.692;9.020;2023-04-03T09:25:20;9.33;;;8.73;;
4057;SDS011;2044;48.692;9.020;2023-04-03T09:27:48;7.87;;;7.40;;
4057;SDS011;2044;48.692;9.020;2023-04-03T09:30:17;9.20;;;8.37;;
4057;SDS011;2044;48.692;9.020;2023-04-03T09:32:46;10.40;;;9.80;;
4057;SDS011;2044;48.692;9.020;2023-04-03T09:35:18;10.17;;;9.47;;
4057;SDS011;2044;48.692;9.020;2023-04-03T09:37:49;8.77;;;8.27;;
4057;SDS011;2044;48.692;9.020;2023-04-03T09:40:28;9.10;;;8.50;;
4057;SDS011;2044;48.692;9.020;2023-04-03T09:43:00;8.67;;;8.17;;
4057;SDS011;2044;48.692;9.020;2023-04-03T09:45:30;7.57;;;7.07;;
4057;SDS011;2044;48.692;9.020;2023-04-03T09:48:05;8.17;;;7.53;;
4057;SDS011;2044;48.692;9.020;2023-04-03T09:50:34;7.77;;;7.37;;
4057;SDS011;2044;48.692;9.020;2023-04-03T09:53:06;9.47;;;8.67;;
4057;SDS011;2044;48.692;9.020;2023-04-03T09:55:41;9.53;;;8.83;;
4057;SDS011;2044;48.692;9.020;2023-04-03T09:58:22;8.80;;;8.20;;
4057;SDS011;2044;48.692;9.020;2023-04-03T10:00:55;8.13;;;7.60;;
4057;SDS011;2044;48.692;9.020;2023-04-03T10:03:24;8.83;;;8.27;;
4057;SDS011;2044;48.692;9.020;2023-04-03T10:05:53;9.77;;;9.27;;
4057;SDS011;2044;48.692;9.020;2023-04-03T10:08:21;8.30;;;7.90;;
4057;SDS011;2044;48.692;9.020;2023-04-03T10:11:05;8.03;;;7.63;;
4057;SDS011;2044;48.692;9.020;2023-04-03T10:13:55;7.70;;;7.40;;
4057;SDS011;2044;48.692;9.020;2023-04-03T10:16:26;10.20;;;9.50;;
4057;SDS011;2044;48.692;9.020;2023-04-03T10:22:08;9.20;;;8.70;;
4057;SDS011;2044;48.692;9.020;2023-04-03T10:24:47;8.43;;;7.97;;
4057;SDS011;2044;48.692;9.020;2023-04-03T10:27:21;8.73;;;8.27;;
4057;SDS011;2044;48.692;9.020;2023-04-03T10:29:59;9.20;;;8.70;;
4057;SDS011;2044;48.692;9.020;2023-04-03T10:32:44;10.23;;;9.67;;
4057;SDS011;2044;48.692;9.020;2023-04-03T10:35:20;8.73;;;8.23;;
4057;SDS011;2044;48.692;9.020;2023-04-03T10:37:58;9.50;;;8.90;;
4057;SDS011;2044;48.692;9.020;2023-04-03T10:40:30;9.50;;;8.80;;
4057;SDS011;2044;48.692;9.020;2023-04-03T10:43:06;9.00;;;8.50;;
4057;SDS011;2044;48.692;9.020;2023-04-03T10:45:48;9.00;;;8.40;;
4057;SDS011;2044;48.692;9.020;2023-04-03T10:48:24;8.07;;;7.67;;
4057;SDS011;2044;48.692;9.020;2023-04-03T10:51:09;9.07;;;8.57;;
4057;SDS011;2044;48.692;9.020;2023-04-03T10:53:43;7.93;;;7.53;;
4057;SDS011;2044;48.692;9.020;2023-04-03T10:56:15;8.23;;;7.77;;
4057;SDS011;2044;48.692;9.020;2023-04-03T10:58:48;10.07;;;9.47;;
4057;SDS011;2044;48.692;9.020;2023-04-03T11:01:18;8.30;;;7.90;;
4057;SDS011;2044;48.692;9.020;2023-04-03T11:03:49;8.80;;;8.30;;
4057;SDS011;2044;48.692;9.020;2023-04-03T11:06:19;8.30;;;7.80;;
4057;SDS011;2044;48.692;9.020;2023-04-03T11:08:50;9.30;;;8.77;;
4057;SDS011;2044;48.692;9.020;2023-04-03T11:11:22;8.50;;;7.90;;
4057;SDS011;2044;48.692;9.020;2023-04-03T11:13:54;7.43;;;6.93;;
4057;SDS011;2044;48.692;9.020;2023-04-03T11:16:26;9.30;;;8.70;;
4057;SDS011;2044;48.692;9.020;2023-04-03T11:18:58;9.93;;;9.07;;
4057;SDS011;2044;48.692;9.020;2023-04-03T11:21:28;9.90;;;9.10;;
4057;SDS011;2044;48.692;9.020;2023-04-03T11:23:59;8.37;;;7.97;;
4057;SDS011;2044;48.692;9.020;2023-04-03T11:26:35;9.10;;;8.60;;
4057;SDS011;2044;48.692;9.020;2023-04-03T11:29:06;8.90;;;8.50;;
4057;SDS011;2044;48.692;9.020;2023-04-03T11:31:40;8.80;;;8.10;;
4057;SDS011;2044;48.692;9.020;2023-04-03T11:34:21;9.53;;;9.00;;
4057;SDS011;2044;48.692;9.020;2023-04-03T11:36:59;8.53;;;8.03;;
4057;SDS011;2044;48.692;9.020;2023-04-03T11:39:28;9.10;;;8.60;;
4057;SDS011;2044;48.692;9.020;2023-04-03T11:42:07;8.10;;;7.70;;
4057;SDS011;2044;48.692;9.020;2023-04-03T11:44:41;8.00;;;7.60;;
4057;SDS011;2044;48.692;9.020;2023-04-03T11:47:08;10.30;;;9.50;;
4057;SDS011;2044;48.692;9.020;2023-04-03T11:49:54;9.33;;;8.57;;
4057;SDS011;2044;48.692;9.020;2023-04-03T11:58:31;10.10;;;9.50;;
4057;SDS011;2044;48.692;9.020;2023-04-03T12:01:05;8.30;;;8.00;;
4057;SDS011;2044;48.692;9.020;2023-04-03T12:15:24;8.13;;;7.63;;
4057;SDS011;2044;48.692;9.020;2023-04-03T12:18:31;9.23;;;8.63;;
4057;SDS011;2044;48.692;9.020;2023-04-03T12:21:06;9.13;;;8.40;;
4057;SDS011;2044;48.692;9.020;2023-04-03T12:23:33;8.80;;;8.40;;
4057;SDS011;2044;48.692;9.020;2023-04-03T12:26:05;8.27;;;7.80;;
4057;SDS011;2044;48.692;9.020;2023-04-03T12:28:46;8.90;;;8.50;;
4057;SDS011;2044;48.692;9.020;2023-04-03T12:31:16;8.70;;;8.30;;
4057;SDS011;2044;48.692;9.020;2023-04-03T12:33:48;9.30;;;8.70;;
4057;SDS011;2044;48.692;9.020;2023-04-03T12:36:29;8.40;;;8.00;;
4057;SDS011;2044;48.692;9.020;2023-04-03T12:39:16;10.33;;;9.80;;
4057;SDS011;2044;48.692;9.020;2023-04-03T12:42:09;10.17;;;9.57;;
4057;SDS011;2044;48.692;9.020;2023-04-03T12:44:48;9.23;;;8.77;;
4057;SDS011;2044;48.692;9.020;2023-04-03T12:47:25;9.00;;;8.50;;
4057;SDS011;2044;48.692;9.020;2023-04-03T12:49:54;9.37;;;8.87;;
4057;SDS011;2044;48.692;9.020;2023-04-03T12:52:27;10.53;;;9.90;;
4057;SDS011;2044;48.692;9.020;2023-04-03T12:54:58;7.93;;;7.63;;
4057;SDS011;2044;48.692;9.020;2023-04-03T12:57:30;8.40;;;8.10;;
4057;SDS011;2044;48.692;9.020;2023-04-03T12:59:57;9.73;;;9.13;;
4057;SDS011;2044;48.692;9.020;2023-04-03T13:02:25;9.63;;;9.00;;
4057;SDS011;2044;48.692;9.020;2023-04-03T13:04:54;9.17;;;8.70;;
4057;SDS011;2044;48.692;9.020;2023-04-03T13:07:25;10.27;;;9.67;;
4057;SDS011;2044;48.692;9.020;2023-04-03T13:10:00;9.80;;;9.20;;
4057;SDS011;2044;48.692;9.020;2023-04-03T13:12:31;15.43;;;9.93;;
4057;SDS011;2044;48.692;9.020;2023-04-03T13:14:59;8.20;;;7.80;;
4057;SDS011;2044;48.692;9.020;2023-04-03T13:17:29;10.90;;;10.20;;
4057;SDS011;2044;48.692;9.020;2023-04-03T13:20:06;10.00;;;9.43;;
4057;SDS011;2044;48.692;9.020;2023-04-03T13:22:36;9.70;;;9.20;;
4057;SDS011;2044;48.692;9.020;2023-04-03T13:25:14;9.60;;;9.10;;
4057;SDS011;2044;48.692;9.020;2023-04-03T13:27:43;9.27;;;8.77;;
4057;SDS011;2044;48.692;9.020;2023-04-03T13:30:21;9.20;;;8.60;;
4057;SDS011;2044;48.692;9.020;2023-04-03T13:32:51;9.13;;;8.70;;
4057;SDS011;2044;48.692;9.020;2023-04-03T13:35:26;9.47;;;8.97;;
4057;SDS011;2044;48.692;9.020;2023-04-03T13:37:59;9.67;;;9.10;;
4057;SDS011;2044;48.692;9.020;2023-04-03T13:40:27;10.53;;;10.03;;
4057;SDS011;2044;48.692;9.020;2023-04-03T13:43:03;13.17;;;12.23;;
4057;SDS011;2044;48.692;9.020;2023-04-03T13:45:33;10.17;;;9.50;;
4057;SDS011;2044;48.692;9.020;2023-04-03T13:48:14;9.70;;;9.30;;
4057;SDS011;2044;48.692;9.020;2023-04-03T13:50:50;11.93;;;11.13;;
4057;SDS011;2044;48.692;9.020;2023-04-03T13:53:22;9.90;;;9.50;;
4057;SDS011;2044;48.692;9.020;2023-04-03T13:55:55;9.70;;;9.20;;
4057;SDS011;2044;48.692;9.020;2023-04-03T13:58:25;9.87;;;9.40;;
4057;SDS011;2044;48.692;9.020;2023-04-03T14:00:54;9.40;;;8.90;;
4057;SDS011;2044;48.692;9.020;2023-04-03T14:03:23;9.80;;;9.30;;
4057;SDS011;2044;48.692;9.020;2023-04-03T14:05:52;9.67;;;8.83;;
4057;SDS011;2044;48.692;9.020;2023-04-03T14:08:20;9.23;;;8.50;;
4057;SDS011;2044;48.692;9.020;2023-04-03T14:10:47;8.97;;;8.57;;
4057;SDS011;2044;48.692;9.020;2023-04-03T14:13:16;9.20;;;8.70;;
4057;SDS011;2044;48.692;9.020;2023-04-03T14:15:47;9.13;;;8.63;;
4057;SDS011;2044;48.692;9.020;2023-04-03T14:18:16;10.53;;;9.97;;
4057;SDS011;2044;48.692;9.020;2023-04-03T14:20:45;10.30;;;9.80;;
4057;SDS011;2044;48.692;9.020;2023-04-03T14:23:12;10.00;;;9.60;;
4057;SDS011;2044;48.692;9.020;2023-04-03T14:25:39;10.40;;;9.80;;
4057;SDS011;2044;48.692;9.020;2023-04-03T14:28:12;9.57;;;9.07;;
4057;SDS011;2044;48.692;9.020;2023-04-03T14:30:41;9.43;;;9.00;;
4057;SDS011;2044;48.692;9.020;2023-04-03T14:33:11;9.80;;;9.30;;
4057;SDS011;2044;48.692;9.020;2023-04-03T14:35:40;9.67;;;9.17;;
4057;SDS011;2044;48.692;9.020;2023-04-03T14:38:11;9.40;;;8.90;;
4057;SDS011;2044;48.692;9.020;2023-04-03T14:40:45;10.43;;;9.93;;
4057;SDS011;2044;48.692;9.020;2023-04-03T14:43:12;10.90;;;10.30;;
4057;SDS011;2044;48.692;9.020;2023-04-03T14:45:40;11.10;;;10.50;;
4057;SDS011;2044;48.692;9.020;2023-04-03T14:48:10;10.00;;;9.40;;
4057;SDS011;2044;48.692;9.020;2023-04-03T14:50:43;11.73;;;11.03;;
4057;SDS011;2044;48.692;9.020;2023-04-03T14:53:10;10.80;;;10.20;;
4057;SDS011;2044;48.692;9.020;2023-04-03T14:55:39;10.33;;;9.83;;
4057;SDS011;2044;48.692;9.020;2023-04-03T14:58:08;11.10;;;10.50;;
4057;SDS011;2044;48.692;9.020;2023-04-03T15:00:38;10.00;;;9.23;;
4057;SDS011;2044;48.692;9.020;2023-04-03T15:03:05;9.80;;;9.20;;
4057;SDS011;2044;48.692;9.020;2023-04-03T15:05:33;9.67;;;9.27;;
4057;SDS011;2044;48.692;9.020;2023-04-03T15:08:02;10.03;;;9.63;;
4057;SDS011;2044;48.692;9.020;2023-04-03T15:10:29;10.70;;;10.10;;
4057;SDS011;2044;48.692;9.020;2023-04-03T15:12:57;10.07;;;9.57;;
4057;SDS011;2044;48.692;9.020;2023-04-03T15:15:24;10.10;;;9.60;;
4057;SDS011;2044;48.692;9.020;2023-04-03T15:17:55;10.70;;;10.10;;
4057;SDS011;2044;48.692;9.020;2023-04-03T15:20:24;9.30;;;8.90;;
4057;SDS011;2044;48.692;9.020;2023-04-03T15:22:53;10.13;;;9.63;;
4057;SDS011;2044;48.692;9.020;2023-04-03T15:25:21;9.67;;;9.07;;
4057;SDS011;2044;48.692;9.020;2023-04-03T15:27:47;8.63;;;8.23;;
4057;SDS011;2044;48.692;9.020;2023-04-03T15:30:15;8.30;;;7.90;;
4057;SDS011;2044;48.692;9.020;2023-04-03T15:32:43;9.07;;;8.60;;
4057;SDS011;2044;48.692;9.020;2023-04-03T15:35:10;9.53;;;9.03;;
4057;SDS011;2044;48.692;9.020;2023-04-03T15:37:37;10.10;;;9.60;;
4057;SDS011;2044;48.692;9.020;2023-04-03T15:40:06;9.47;;;8.97;;
4057;SDS011;2044;48.692;9.020;2023-04-03T15:42:34;10.50;;;9.80;;
4057;SDS011;2044;48.692;9.020;2023-04-03T15:45:00;10.30;;;9.60;;
4057;SDS011;2044;48.692;9.020;2023-04-03T15:47:27;9.10;;;8.60;;
4057;SDS011;2044;48.692;9.020;2023-04-03T15:49:54;9.73;;;9.20;;
4057;SDS011;2044;48.692;9.020;2023-04-03T15:52:21;8.73;;;8.30;;
4057;SDS011;2044;48.692;9.020;2023-04-03T15:54:48;9.70;;;9.17;;